Time;durP1;ratioP1;P1;durP2;ratioP2;P2;SDS_P1;SDS_P2;PMS_P1;PMS_P2;Temp;Humidity;BMP_temperature;BMP_pressure;BME280_temperature;BME280_humidity;BME280_pressure;Samples;Min_cycle;Max_cycle;Signal;HPM_P1;HPM_P2
2022/08/31 00:04:36;;;;;;;10.43;6.78;;;;;;;;;;5070726;28;20039;-58
2022/08/31 00:07:02;;;;;;;9.40;6.35;;;;;;;;;;5070243;28;20398;-58
2022/08/31 00:09:29;;;;;;;10.30;6.18;;;;;;;;;;5069711;28;20421;-58
2022/08/31 00:11:55;;;;;;;10.73;6.80;;;;;;;;;;5066370;28;20029;-59
2022/08/31 00:14:21;;;;;;;11.65;7.47;;;;;;;;;;5064859;28;20410;-58
2022/08/31 00:16:46;;;;;;;10.73;6.70;;;;;;;;;;5062407;28;20381;-58
2022/08/31 00:19:14;;;;;;;12.02;6.50;;;;;;;;;;5065227;28;20106;-58
2022/08/31 00:21:39;;;;;;;9.00;5.90;;;;;;;;;;5065016;28;20127;-59
2022/08/31 00:24:05;;;;;;;9.02;5.93;;;;;;;;;;5063657;28;20103;-58
2022/08/31 00:26:30;;;;;;;10.32;5.75;;;;;;;;;;5060848;28;20183;-58
2022/08/31 00:28:56;;;;;;;8.85;5.57;;;;;;;;;;5061931;28;20097;-58
2022/08/31 00:31:22;;;;;;;8.80;5.50;;;;;;;;;;5064961;28;20021;-58
2022/08/31 00:33:51;;;;;;;10.55;6.07;;;;;;;;;;5067435;28;20024;-58
2022/08/31 00:36:18;;;;;;;8.05;5.30;;;;;;;;;;5067770;28;20028;-58
2022/08/31 00:38:43;;;;;;;9.15;5.60;;;;;;;;;;5064901;28;20032;-58
2022/08/31 00:41:10;;;;;;;8.32;6.05;;;;;;;;;;5065368;28;20401;-58
2022/08/31 00:43:40;;;;;;;12.77;5.88;;;;;;;;;;5063686;28;20028;-58
2022/08/31 00:46:07;;;;;;;9.57;5.68;;;;;;;;;;5062553;28;20082;-58
2022/08/31 00:48:34;;;;;;;14.52;6.47;;;;;;;;;;5063963;28;20031;-58
2022/08/31 00:50:59;;;;;;;10.35;6.43;;;;;;;;;;5065874;28;20025;-58
2022/08/31 00:53:25;;;;;;;12.63;6.32;;;;;;;;;;5064238;28;20448;-58
2022/08/31 00:55:51;;;;;;;10.05;6.13;;;;;;;;;;5062686;28;20444;-58
2022/08/31 00:58:16;;;;;;;8.85;5.72;;;;;;;;;;5062864;28;20056;-58
2022/08/31 01:00:43;;;;;;;8.25;5.93;;;;;;;;;;5071291;28;20025;-58
2022/08/31 01:03:09;;;;;;;9.20;6.15;;;;;;;;;;5070680;28;20031;-58
2022/08/31 01:05:36;;;;;;;8.63;6.30;;;;;;;;;;5069377;28;20107;-58
2022/08/31 01:08:03;;;;;;;9.88;5.78;;;;;;;;;;5070417;28;20466;-58
2022/08/31 01:10:38;;;;;;;12.52;6.45;;;;;;;;;;5070554;28;20115;-58
2022/08/31 01:13:05;;;;;;;9.93;6.45;;;;;;;;;;5067517;28;20028;-58
2022/08/31 01:15:31;;;;;;;8.70;6.35;;;;;;;;;;5069059;28;20371;-57
2022/08/31 01:17:59;;;;;;;9.68;6.43;;;;;;;;;;5068225;28;20091;-58
2022/08/31 01:20:36;;;;;;;8.95;6.20;;;;;;;;;;5068874;28;20029;-58
2022/08/31 01:23:25;;;;;;;9.02;6.35;;;;;;;;;;5062378;28;20478;-58
2022/08/31 01:25:52;;;;;;;11.20;6.60;;;;;;;;;;5065266;28;20025;-58
2022/08/31 01:28:18;;;;;;;9.68;6.40;;;;;;;;;;5068108;28;20035;-58
2022/08/31 01:31:00;;;;;;;10.38;6.30;;;;;;;;;;5061577;28;20260;-58
2022/08/31 01:33:27;;;;;;;11.05;6.25;;;;;;;;;;5062376;28;20029;-58
2022/08/31 01:35:55;;;;;;;12.32;7.00;;;;;;;;;;5064663;28;20103;-58
2022/08/31 01:38:21;;;;;;;10.95;7.20;;;;;;;;;;5065638;28;20028;-58
2022/08/31 01:40:55;;;;;;;12.88;7.32;;;;;;;;;;5065498;28;20438;-58
2022/08/31 01:43:21;;;;;;;10.43;6.90;;;;;;;;;;5062876;28;20025;-58
2022/08/31 01:45:46;;;;;;;12.40;6.93;;;;;;;;;;5064177;28;20020;-58
2022/08/31 01:48:13;;;;;;;8.73;6.38;;;;;;;;;;5065074;28;20111;-58
2022/08/31 01:50:39;;;;;;;10.50;7.20;;;;;;;;;;5063159;28;20486;-58
2022/08/31 01:53:04;;;;;;;10.57;7.35;;;;;;;;;;5060944;28;20036;-57
2022/08/31 01:55:30;;;;;;;13.70;7.40;;;;;;;;;;5063107;28;20032;-58
2022/08/31 01:57:59;;;;;;;12.48;7.65;;;;;;;;;;5064643;28;20042;-57
2022/08/31 02:00:25;;;;;;;10.68;7.53;;;;;;;;;;5070748;28;20506;-57
2022/08/31 02:02:51;;;;;;;10.98;7.57;;;;;;;;;;5068496;28;20518;-57
2022/08/31 02:05:16;;;;;;;11.82;7.90;;;;;;;;;;5069588;28;20028;-58
2022/08/31 02:07:42;;;;;;;14.00;8.02;;;;;;;;;;5068524;28;20119;-58
2022/08/31 02:10:08;;;;;;;11.27;7.88;;;;;;;;;;5068833;28;20024;-58
2022/08/31 02:12:34;;;;;;;10.77;8.20;;;;;;;;;;5065741;28;20036;-57
2022/08/31 02:14:59;;;;;;;16.17;8.15;;;;;;;;;;5067209;28;20027;-58
2022/08/31 02:17:25;;;;;;;10.40;7.47;;;;;;;;;;5065630;28;20444;-58
2022/08/31 02:19:50;;;;;;;13.73;8.80;;;;;;;;;;5058736;28;20043;-58
2022/08/31 02:22:15;;;;;;;12.73;8.38;;;;;;;;;;5045683;28;20497;-58
2022/08/31 02:24:41;;;;;;;10.60;7.70;;;;;;;;;;5062885;28;20028;-58
2022/08/31 02:27:06;;;;;;;12.73;8.38;;;;;;;;;;5065786;28;20032;-57
2022/08/31 02:29:32;;;;;;;13.80;8.52;;;;;;;;;;5069619;28;20027;-59
2022/08/31 02:31:57;;;;;;;14.45;9.48;;;;;;;;;;5064981;28;20282;-57
2022/08/31 02:34:23;;;;;;;16.35;9.13;;;;;;;;;;5061632;28;20055;-58
2022/08/31 02:36:49;;;;;;;18.65;9.27;;;;;;;;;;5063100;28;20040;-59
2022/08/31 02:39:14;;;;;;;21.08;9.07;;;;;;;;;;5064857;28;20021;-59
2022/08/31 02:41:40;;;;;;;16.88;8.52;;;;;;;;;;5063335;28;20036;-59
2022/08/31 02:44:05;;;;;;;13.88;8.90;;;;;;;;;;5061705;28;20575;-59
2022/08/31 02:46:31;;;;;;;16.38;9.45;;;;;;;;;;5060518;28;20056;-59
2022/08/31 02:48:56;;;;;;;16.00;9.68;;;;;;;;;;5064251;28;20021;-59
2022/08/31 02:51:22;;;;;;;14.85;9.48;;;;;;;;;;5063980;28;20056;-59
2022/08/31 02:53:48;;;;;;;16.52;9.88;;;;;;;;;;5062862;28;20489;-59
2022/08/31 02:56:14;;;;;;;14.95;9.80;;;;;;;;;;5060654;28;20035;-59
2022/08/31 02:58:40;;;;;;;14.98;9.25;;;;;;;;;;5064462;28;20032;-59
2022/08/31 03:01:05;;;;;;;15.82;9.38;;;;;;;;;;5069323;28;20035;-59
2022/08/31 03:03:31;;;;;;;16.83;8.73;;;;;;;;;;5068187;28;20376;-58
2022/08/31 03:05:57;;;;;;;18.30;9.65;;;;;;;;;;5079814;28;20040;-58
2022/08/31 03:08:23;;;;;;;17.95;9.40;;;;;;;;;;5057700;28;20547;-58
2022/08/31 03:10:48;;;;;;;19.55;9.32;;;;;;;;;;5061313;28;20056;-59
2022/08/31 03:13:13;;;;;;;17.67;10.05;;;;;;;;;;5066072;28;20060;-59
2022/08/31 03:15:39;;;;;;;19.05;10.13;;;;;;;;;;5062741;28;20029;-58
2022/08/31 03:18:05;;;;;;;17.00;9.43;;;;;;;;;;5066130;28;20020;-58
2022/08/31 03:20:30;;;;;;;16.55;9.80;;;;;;;;;;5065993;28;20028;-59
2022/08/31 03:22:55;;;;;;;17.60;10.60;;;;;;;;;;5065197;28;20012;-60
2022/08/31 03:25:21;;;;;;;25.45;11.40;;;;;;;;;;5063830;28;20032;-59
2022/08/31 03:27:47;;;;;;;17.00;9.13;;;;;;;;;;5064024;28;20052;-59
2022/08/31 03:30:15;;;;;;;17.90;9.48;;;;;;;;;;5065360;28;20066;-59
2022/08/31 03:32:44;;;;;;;17.38;10.40;;;;;;;;;;5064071;28;20024;-59
2022/08/31 03:35:11;;;;;;;19.80;10.90;;;;;;;;;;5062328;28;20031;-60
2022/08/31 03:37:36;;;;;;;19.33;10.23;;;;;;;;;;5060785;28;20029;-60
2022/08/31 03:40:03;;;;;;;17.42;10.07;;;;;;;;;;5064364;28;20034;-60
2022/08/31 03:42:28;;;;;;;18.90;10.40;;;;;;;;;;5063702;28;20024;-60
2022/08/31 03:44:54;;;;;;;18.02;10.98;;;;;;;;;;5064118;28;20026;-60
2022/08/31 03:47:20;;;;;;;20.70;12.38;;;;;;;;;;5060571;28;20036;-60
2022/08/31 03:49:45;;;;;;;19.15;11.65;;;;;;;;;;5065554;28;20090;-60
2022/08/31 03:52:11;;;;;;;18.05;11.00;;;;;;;;;;5067452;28;20039;-59
2022/08/31 03:54:36;;;;;;;23.77;11.88;;;;;;;;;;5066824;28;20446;-60
2022/08/31 03:57:03;;;;;;;21.38;10.93;;;;;;;;;;5060803;28;20423;-60
2022/08/31 03:59:29;;;;;;;20.30;10.85;;;;;;;;;;5058009;28;20140;-59
2022/08/31 04:01:54;;;;;;;23.13;14.40;;;;;;;;;;5071366;28;20140;-59
2022/08/31 04:04:19;;;;;;;21.13;13.02;;;;;;;;;;5071743;28;20028;-59
2022/08/31 04:06:45;;;;;;;20.73;12.30;;;;;;;;;;5070023;28;20025;-59
2022/08/31 04:09:12;;;;;;;17.38;11.77;;;;;;;;;;5069779;28;20068;-59
2022/08/31 04:11:42;;;;;;;19.20;12.05;;;;;;;;;;5068580;28;20153;-60
2022/08/31 04:14:08;;;;;;;18.13;11.85;;;;;;;;;;5069697;28;20032;-59
2022/08/31 04:16:35;;;;;;;19.55;12.10;;;;;;;;;;5068514;28;20509;-59
2022/08/31 04:19:01;;;;;;;21.30;12.80;;;;;;;;;;5066995;28;20046;-59
2022/08/31 04:21:29;;;;;;;18.55;12.15;;;;;;;;;;5068697;28;20551;-59
2022/08/31 04:23:56;;;;;;;18.98;11.88;;;;;;;;;;5068694;28;20025;-60
2022/08/31 04:26:23;;;;;;;22.90;12.52;;;;;;;;;;5065397;28;20055;-59
2022/08/31 04:28:49;;;;;;;19.75;11.60;;;;;;;;;;5065886;28;20024;-59
2022/08/31 04:31:15;;;;;;;19.10;11.43;;;;;;;;;;5067628;28;20028;-59
2022/08/31 04:33:41;;;;;;;19.25;11.50;;;;;;;;;;5066764;28;20039;-59
2022/08/31 04:36:09;;;;;;;22.25;12.75;;;;;;;;;;5064824;28;20064;-59
2022/08/31 04:38:35;;;;;;;16.00;11.00;;;;;;;;;;5062972;28;20420;-59
2022/08/31 04:41:05;;;;;;;17.52;11.30;;;;;;;;;;5066664;28;20028;-59
2022/08/31 04:43:31;;;;;;;16.27;11.40;;;;;;;;;;5065389;28;20025;-59
2022/08/31 04:45:57;;;;;;;19.08;11.85;;;;;;;;;;5065456;28;20020;-59
2022/08/31 04:48:22;;;;;;;19.40;12.27;;;;;;;;;;5056411;28;20029;-60
2022/08/31 04:50:50;;;;;;;18.95;11.90;;;;;;;;;;5060157;28;20067;-59
2022/08/31 04:53:16;;;;;;;24.15;12.18;;;;;;;;;;5065590;28;20043;-59
2022/08/31 04:55:42;;;;;;;23.17;12.70;;;;;;;;;;5063913;28;20024;-59
2022/08/31 04:58:09;;;;;;;20.63;12.20;;;;;;;;;;5066890;28;20024;-59
2022/08/31 05:00:34;;;;;;;17.77;12.10;;;;;;;;;;5066511;28;20359;-59
2022/08/31 05:03:00;;;;;;;19.95;12.02;;;;;;;;;;5062517;28;20023;-59
2022/08/31 05:05:26;;;;;;;18.48;11.75;;;;;;;;;;5069852;28;20017;-63
2022/08/31 05:07:51;;;;;;;20.33;13.73;;;;;;;;;;5068780;28;20036;-63
2022/08/31 05:10:17;;;;;;;20.42;12.27;;;;;;;;;;5068968;28;20036;-63
2022/08/31 05:12:43;;;;;;;19.08;12.10;;;;;;;;;;5067667;28;20052;-63
2022/08/31 05:15:09;;;;;;;17.85;12.07;;;;;;;;;;5068188;28;20028;-64
2022/08/31 05:17:34;;;;;;;18.45;12.02;;;;;;;;;;5064217;28;20394;-63
2022/08/31 05:20:00;;;;;;;18.33;11.27;;;;;;;;;;5067783;28;20029;-64
2022/08/31 05:22:25;;;;;;;17.15;11.18;;;;;;;;;;5066597;28;20048;-63
2022/08/31 05:24:50;;;;;;;18.55;11.82;;;;;;;;;;5067150;28;20056;-63
2022/08/31 05:27:16;;;;;;;20.30;11.85;;;;;;;;;;5064487;28;20017;-63
2022/08/31 05:29:41;;;;;;;22.10;12.32;;;;;;;;;;5063408;28;20082;-63
2022/08/31 05:32:07;;;;;;;24.55;14.18;;;;;;;;;;5065191;28;20031;-62
2022/08/31 05:34:32;;;;;;;21.88;12.55;;;;;;;;;;5065580;28;20034;-62
2022/08/31 05:36:58;;;;;;;19.73;12.98;;;;;;;;;;5062169;28;20367;-62
2022/08/31 05:39:24;;;;;;;19.23;12.20;;;;;;;;;;5052522;28;20104;-62
2022/08/31 05:41:50;;;;;;;19.02;12.60;;;;;;;;;;5064382;28;20112;-62
2022/08/31 05:44:16;;;;;;;19.42;12.85;;;;;;;;;;5064570;28;20495;-62
2022/08/31 05:46:42;;;;;;;18.23;12.10;;;;;;;;;;5065060;28;20027;-64
2022/08/31 05:49:08;;;;;;;19.48;12.93;;;;;;;;;;5061264;28;20059;-62
2022/08/31 05:51:34;;;;;;;17.60;12.40;;;;;;;;;;5062082;28;20122;-62
2022/08/31 05:54:00;;;;;;;17.58;12.32;;;;;;;;;;5064962;28;20070;-62
2022/08/31 05:56:25;;;;;;;17.92;11.93;;;;;;;;;;5069069;28;20032;-62
2022/08/31 05:58:51;;;;;;;19.65;12.40;;;;;;;;;;5068896;28;20032;-62
2022/08/31 06:01:18;;;;;;;19.20;11.57;;;;;;;;;;5069773;28;20039;-62
2022/08/31 06:03:44;;;;;;;15.90;11.13;;;;;;;;;;5068975;28;20039;-63
2022/08/31 06:06:10;;;;;;;18.52;11.15;;;;;;;;;;5068606;28;20025;-63
2022/08/31 06:08:37;;;;;;;18.40;11.30;;;;;;;;;;5066451;28;20045;-63
2022/08/31 06:11:04;;;;;;;17.15;11.40;;;;;;;;;;5067890;28;20135;-64
2022/08/31 06:13:30;;;;;;;15.90;10.48;;;;;;;;;;5060202;28;20021;-64
2022/08/31 06:15:58;;;;;;;15.40;10.13;;;;;;;;;;5066046;28;20390;-63
2022/08/31 06:18:24;;;;;;;17.33;10.90;;;;;;;;;;5065287;28;20023;-63
2022/08/31 06:20:59;;;;;;;16.23;11.02;;;;;;;;;;5065521;28;20055;-63
2022/08/31 06:23:24;;;;;;;15.98;10.27;;;;;;;;;;5065338;28;20512;-63
2022/08/31 06:25:49;;;;;;;15.40;9.35;;;;;;;;;;5061140;28;20016;-63
2022/08/31 06:28:15;;;;;;;14.77;9.20;;;;;;;;;;5061988;28;20032;-63
2022/08/31 06:30:40;;;;;;;17.35;11.90;;;;;;;;;;5063019;28;20486;-62
2022/08/31 06:33:06;;;;;;;16.83;10.60;;;;;;;;;;5059618;28;20037;-62
2022/08/31 06:35:31;;;;;;;15.15;9.82;;;;;;;;;;5061444;28;20024;-62
2022/08/31 06:37:57;;;;;;;17.02;10.48;;;;;;;;;;5063950;28;20024;-62
2022/08/31 06:40:24;;;;;;;13.77;9.20;;;;;;;;;;5060954;28;20081;-62
2022/08/31 06:42:50;;;;;;;13.43;8.68;;;;;;;;;;5063077;28;20103;-62
2022/08/31 06:45:16;;;;;;;15.73;10.02;;;;;;;;;;5064150;28;20107;-62
2022/08/31 06:47:41;;;;;;;19.38;13.02;;;;;;;;;;5063369;28;20543;-62
2022/08/31 06:50:07;;;;;;;25.10;14.90;;;;;;;;;;5060911;28;20033;-62
2022/08/31 06:52:33;;;;;;;13.98;9.00;;;;;;;;;;5062934;28;20033;-61
2022/08/31 06:54:59;;;;;;;13.10;8.70;;;;;;;;;;5055791;28;20044;-62
2022/08/31 06:57:24;;;;;;;13.43;9.00;;;;;;;;;;5064246;28;20094;-61
2022/08/31 06:59:52;;;;;;;12.77;8.52;;;;;;;;;;5067636;28;20033;-62
2022/08/31 07:02:18;;;;;;;15.95;10.55;;;;;;;;;;5067815;28;20070;-61
2022/08/31 07:04:44;;;;;;;18.77;11.80;;;;;;;;;;5067936;28;20028;-61
2022/08/31 07:07:12;;;;;;;15.55;10.05;;;;;;;;;;5067819;28;20486;-61
2022/08/31 07:09:39;;;;;;;14.15;9.00;;;;;;;;;;5062621;28;20033;-61
2022/08/31 07:12:05;;;;;;;15.35;8.65;;;;;;;;;;5066502;28;20497;-61
2022/08/31 07:14:31;;;;;;;12.25;8.02;;;;;;;;;;5066349;28;20044;-61
2022/08/31 07:16:58;;;;;;;12.68;8.18;;;;;;;;;;5062895;28;20021;-61
2022/08/31 07:19:25;;;;;;;12.95;7.95;;;;;;;;;;5057625;28;20482;-61
2022/08/31 07:21:53;;;;;;;10.82;8.30;;;;;;;;;;5063633;28;20021;-61
2022/08/31 07:24:23;;;;;;;12.30;8.10;;;;;;;;;;5066256;28;20032;-61
2022/08/31 07:27:15;;;;;;;;;;;;;;;;;;5069270;28;20020;-61
2022/08/31 07:29:40;;;;;;;13.60;7.50;;;;;;;;;;5064443;28;19915;-62
2022/08/31 07:32:08;;;;;;;13.70;7.57;;;;;;;;;;5066059;28;20398;-63
2022/08/31 07:34:35;;;;;;;10.85;7.50;;;;;;;;;;5067510;28;20030;-63
2022/08/31 07:42:33;;;;;;;10.93;8.00;;;;;;;;;;5069126;28;20040;-56
2022/08/31 07:45:00;;;;;;;15.63;8.48;;;;;;;;;;5064809;28;20033;-64
2022/08/31 07:47:27;;;;;;;10.60;7.13;;;;;;;;;;5065003;28;20518;-65
2022/08/31 07:49:55;;;;;;;12.07;7.50;;;;;;;;;;5067468;28;20028;-65
2022/08/31 07:52:24;;;;;;;11.80;7.45;;;;;;;;;;5066804;28;20401;-64
2022/08/31 07:54:51;;;;;;;12.23;7.60;;;;;;;;;;5066493;28;20103;-64
2022/08/31 07:57:18;;;;;;;12.30;8.02;;;;;;;;;;5071887;28;20033;-64
2022/08/31 07:59:45;;;;;;;13.60;8.05;;;;;;;;;;5071228;28;20035;-64
2022/08/31 08:02:12;;;;;;;11.85;8.35;;;;;;;;;;5070848;28;20025;-64
2022/08/31 08:04:41;;;;;;;11.50;7.13;;;;;;;;;;5069343;28;20027;-64
2022/08/31 08:07:07;;;;;;;13.95;7.68;;;;;;;;;;5069064;28;20487;-65
2022/08/31 08:09:33;;;;;;;11.65;7.18;;;;;;;;;;5061078;28;20033;-64
2022/08/31 08:12:03;;;;;;;13.27;8.32;;;;;;;;;;5063502;28;20475;-64
2022/08/31 08:14:29;;;;;;;13.55;8.20;;;;;;;;;;5066715;28;20070;-64
2022/08/31 08:16:55;;;;;;;15.10;8.07;;;;;;;;;;5068169;28;20020;-64
2022/08/31 08:19:21;;;;;;;10.45;7.18;;;;;;;;;;5068891;28;20244;-64
2022/08/31 08:21:47;;;;;;;10.45;7.78;;;;;;;;;;5067899;28;20032;-64
2022/08/31 08:24:13;;;;;;;11.75;7.88;;;;;;;;;;5066754;28;20024;-64
2022/08/31 08:26:45;;;;;;;11.43;7.85;;;;;;;;;;5063392;28;20073;-63
2022/08/31 08:29:10;;;;;;;10.70;7.50;;;;;;;;;;5066893;28;20032;-63
2022/08/31 08:31:35;;;;;;;9.63;7.32;;;;;;;;;;5066077;28;20404;-63
2022/08/31 08:34:01;;;;;;;12.80;7.57;;;;;;;;;;5065566;28;20103;-63
2022/08/31 08:36:30;;;;;;;12.65;7.63;;;;;;;;;;5062668;28;20024;-63
2022/08/31 08:38:56;;;;;;;10.85;7.25;;;;;;;;;;5066628;28;20023;-63
2022/08/31 08:41:27;;;;;;;10.57;7.15;;;;;;;;;;5070162;28;20024;-63
2022/08/31 08:43:55;;;;;;;10.07;7.00;;;;;;;;;;5064587;28;20043;-62
2022/08/31 08:46:38;;;;;;;10.80;7.18;;;;;;;;;;5062845;28;20020;-62
2022/08/31 08:49:14;;;;;;;11.80;7.45;;;;;;;;;;5058713;28;20517;-62
2022/08/31 08:51:40;;;;;;;10.77;7.53;;;;;;;;;;5065499;28;20024;-62
2022/08/31 08:54:11;;;;;;;11.48;7.70;;;;;;;;;;5071376;28;20142;-62
2022/08/31 08:56:40;;;;;;;14.68;7.70;;;;;;;;;;5063404;28;20581;-62
2022/08/31 08:59:07;;;;;;;;;;;;;;;;;;5055472;28;20025;-63
2022/08/31 09:01:35;;;;;;;11.57;7.57;;;;;;;;;;5065817;28;19919;-62
2022/08/31 09:04:22;;;;;;;10.48;7.28;;;;;;;;;;5065967;28;20029;-62
2022/08/31 09:07:07;;;;;;;9.77;6.95;;;;;;;;;;5069204;28;20029;-62
2022/08/31 09:09:58;;;;;;;9.68;7.05;;;;;;;;;;5065367;28;20047;-62
2022/08/31 09:12:43;;;;;;;10.27;6.45;;;;;;;;;;5062858;28;20025;-62
2022/08/31 09:15:34;;;;;;;9.52;6.20;;;;;;;;;;5063715;28;20048;-62
2022/08/31 09:18:41;;;;;;;10.00;6.35;;;;;;;;;;5065925;28;20020;-61
2022/08/31 09:21:29;;;;;;;12.00;7.05;;;;;;;;;;5066954;28;20169;-61
2022/08/31 09:24:01;;;;;;;9.50;7.07;;;;;;;;;;5065960;28;20508;-60
2022/08/31 09:26:53;;;;;;;10.43;6.60;;;;;;;;;;5066148;28;20564;-60
2022/08/31 09:29:27;;;;;;;8.90;6.20;;;;;;;;;;5061903;28;20025;-60
2022/08/31 09:32:05;;;;;;;11.13;7.00;;;;;;;;;;5064124;28;20032;-61
2022/08/31 09:34:40;;;;;;;10.25;7.05;;;;;;;;;;5065724;28;20321;-60
2022/08/31 09:37:19;;;;;;;13.77;7.88;;;;;;;;;;5062826;28;20031;-61
2022/08/31 09:39:46;;;;;;;;;;;;;;;;;;5065198;28;20021;-60
2022/08/31 09:42:29;;;;;;;10.95;7.57;;;;;;;;;;5064782;28;19963;-61
2022/08/31 09:44:59;;;;;;;12.30;7.15;;;;;;;;;;5062328;28;20541;-61
2022/08/31 09:47:54;;;;;;;11.10;7.18;;;;;;;;;;5061410;28;20062;-60
2022/08/31 09:50:33;;;;;;;10.02;7.35;;;;;;;;;;5059828;28;20024;-60
2022/08/31 09:56:15;;;;;;;10.75;7.38;;;;;;;;;;5063083;28;20559;-60
2022/08/31 09:58:53;;;;;;;11.75;7.72;;;;;;;;;;5069079;28;20472;-60
2022/08/31 10:01:52;;;;;;;9.93;6.65;;;;;;;;;;5068452;28;20074;-60
2022/08/31 10:04:26;;;;;;;10.35;7.07;;;;;;;;;;5065009;28;20029;-60
2022/08/31 10:07:00;;;;;;;12.70;8.00;;;;;;;;;;5066959;28;20025;-60
2022/08/31 10:09:27;;;;;;;12.27;7.05;;;;;;;;;;5063224;28;20024;-60
2022/08/31 10:11:56;;;;;;;9.90;7.63;;;;;;;;;;5066707;28;20103;-60
2022/08/31 10:14:40;;;;;;;11.77;7.15;;;;;;;;;;5065195;28;20024;-60
2022/08/31 10:17:15;;;;;;;9.60;6.88;;;;;;;;;;5064954;28;20478;-61
2022/08/31 10:20:04;;;;;;;13.60;8.07;;;;;;;;;;5066292;28;20039;-60
2022/08/31 10:22:43;;;;;;;12.73;8.35;;;;;;;;;;5061561;28;20021;-60
2022/08/31 10:25:22;;;;;;;13.35;9.00;;;;;;;;;;5058597;28;20153;-60
2022/08/31 10:27:56;;;;;;;16.73;8.60;;;;;;;;;;5064170;28;20035;-60
2022/08/31 10:30:54;;;;;;;11.63;8.02;;;;;;;;;;5061196;28;20039;-60
2022/08/31 10:35:01;;;;;;;13.45;9.55;;;;;;;;;;5058727;28;20031;-60
2022/08/31 10:36:15;;;;;;;12.40;8.48;;;;;;;;;;5063905;28;20028;-60
2022/08/31 10:38:44;;;;;;;14.35;8.85;;;;;;;;;;5054126;28;20029;-60
2022/08/31 10:41:16;;;;;;;12.68;8.80;;;;;;;;;;5056721;28;20120;-60
2022/08/31 10:44:06;;;;;;;14.75;8.43;;;;;;;;;;5063101;28;20083;-60
2022/08/31 10:46:34;;;;;;;13.93;8.70;;;;;;;;;;5062964;28;20120;-60
2022/08/31 10:49:03;;;;;;;12.60;8.95;;;;;;;;;;5064629;28;20025;-60
2022/08/31 10:51:47;;;;;;;14.85;10.02;;;;;;;;;;5063860;28;20024;-59
2022/08/31 10:54:40;;;;;;;14.75;8.85;;;;;;;;;;5065984;28;20017;-60
2022/08/31 10:57:35;;;;;;;15.60;9.20;;;;;;;;;;5061796;28;20115;-60
2022/08/31 11:03:10;;;;;;;15.85;10.23;;;;;;;;;;5065699;28;20112;-60
2022/08/31 11:05:55;;;;;;;16.40;10.20;;;;;;;;;;5069251;28;20052;-59
2022/08/31 11:08:47;;;;;;;13.77;10.07;;;;;;;;;;5071386;28;20024;-59
2022/08/31 11:11:37;;;;;;;14.05;10.15;;;;;;;;;;5068054;28;20032;-59
2022/08/31 11:14:08;;;;;;;;;;;;;;;;;;5071482;28;20127;-60
2022/08/31 11:16:48;;;;;;;16.02;11.18;;;;;;;;;;5069645;28;19920;-60
2022/08/31 11:19:49;;;;;;;17.70;11.38;;;;;;;;;;5068307;28;20047;-60
2022/08/31 11:22:27;;;;;;;15.80;11.98;;;;;;;;;;5062330;28;20027;-60
2022/08/31 11:25:12;;;;;;;18.95;11.05;;;;;;;;;;5068382;28;20255;-60
2022/08/31 11:27:53;;;;;;;20.48;12.57;;;;;;;;;;5060314;28;20402;-61
2022/08/31 11:30:27;;;;;;;19.50;13.57;;;;;;;;;;5068365;28;20131;-60
2022/08/31 11:33:06;;;;;;;20.42;13.32;;;;;;;;;;5066610;28;20025;-60
2022/08/31 11:35:56;;;;;;;21.77;12.73;;;;;;;;;;5064577;28;20199;-60
2022/08/31 11:38:41;;;;;;;17.35;11.95;;;;;;;;;;5067672;28;20602;-60
2022/08/31 11:41:11;;;;;;;14.75;11.20;;;;;;;;;;5062701;28;20478;-60
2022/08/31 11:43:36;;;;;;;18.88;12.85;;;;;;;;;;5064968;28;20039;-61
2022/08/31 11:46:23;;;;;;;16.45;12.38;;;;;;;;;;5067744;28;20028;-61
2022/08/31 11:48:50;;;;;;;19.10;13.25;;;;;;;;;;5065538;28;20086;-61
2022/08/31 11:51:41;;;;;;;19.25;13.63;;;;;;;;;;5069733;28;20033;-60
2022/08/31 11:54:40;;;;;;;20.55;14.65;;;;;;;;;;5067669;28;20040;-60
2022/08/31 11:57:14;;;;;;;26.02;14.93;;;;;;;;;;5070094;28;20072;-60
2022/08/31 11:59:44;;;;;;;20.95;14.15;;;;;;;;;;5070845;28;20059;-60
2022/08/31 12:02:19;;;;;;;24.85;15.30;;;;;;;;;;5070469;28;20500;-60
2022/08/31 12:04:50;;;;;;;25.20;16.65;;;;;;;;;;5068299;28;20094;-60
2022/08/31 12:07:29;;;;;;;22.52;14.48;;;;;;;;;;5069953;28;20082;-60
2022/08/31 12:10:07;;;;;;;;;;;;;;;;;;5069686;28;20025;-61
2022/08/31 12:12:32;;;;;;;19.98;12.85;;;;;;;;;;5065593;28;19913;-61
2022/08/31 12:15:02;;;;;;;22.23;15.57;;;;;;;;;;5067905;28;20436;-60
2022/08/31 12:17:45;;;;;;;23.00;15.88;;;;;;;;;;5062474;28;20033;-61
2022/08/31 12:23:37;;;;;;;18.98;13.27;;;;;;;;;;5061563;28;20028;-60
2022/08/31 12:26:38;;;;;;;18.55;14.27;;;;;;;;;;5063244;28;20111;-60
2022/08/31 12:29:09;;;;;;;19.90;14.48;;;;;;;;;;5064438;28;20021;-61
2022/08/31 12:31:38;;;;;;;21.35;14.98;;;;;;;;;;5066003;28;20039;-60
2022/08/31 12:34:12;;;;;;;22.88;14.73;;;;;;;;;;5064478;28;20301;-60
2022/08/31 12:36:38;;;;;;;18.15;13.35;;;;;;;;;;5064116;28;20035;-60
2022/08/31 12:39:12;;;;;;;21.25;13.00;;;;;;;;;;5066698;28;20163;-61
2022/08/31 12:41:55;;;;;;;20.48;15.10;;;;;;;;;;5065989;28;20040;-61
2022/08/31 12:44:44;;;;;;;24.83;14.80;;;;;;;;;;5062851;28;20025;-61
2022/08/31 12:47:21;;;;;;;21.15;14.10;;;;;;;;;;5059652;28;20070;-61
2022/08/31 12:50:02;;;;;;;19.15;13.60;;;;;;;;;;5066418;28;20032;-61
2022/08/31 12:53:02;;;;;;;21.48;13.32;;;;;;;;;;5070450;28;20389;-61
2022/08/31 12:55:33;;;;;;;19.52;14.30;;;;;;;;;;5070310;28;20052;-61
2022/08/31 12:59:01;;;;;;;20.67;14.52;;;;;;;;;;5066145;28;20028;-61
2022/08/31 13:01:27;;;;;;;23.48;15.30;;;;;;;;;;5021597;28;20111;-61
2022/08/31 13:03:57;;;;;;;18.70;13.90;;;;;;;;;;5060398;28;20041;-61
2022/08/31 13:06:22;;;;;;;20.60;13.40;;;;;;;;;;5063436;28;20024;-61
2022/08/31 13:08:50;;;;;;;19.95;13.43;;;;;;;;;;5060368;28;20025;-61
2022/08/31 13:11:30;;;;;;;19.73;13.13;;;;;;;;;;5062630;28;20067;-61
2022/08/31 13:14:19;;;;;;;17.80;12.57;;;;;;;;;;5066637;28;20063;-61
2022/08/31 13:17:05;;;;;;;;;;;;;;;;;;5067369;28;20113;-60
2022/08/31 13:19:32;;;;;;;19.55;12.25;;;;;;;;;;5063700;28;19944;-61
2022/08/31 13:22:03;;;;;;;17.77;12.95;;;;;;;;;;5064813;28;20151;-61
2022/08/31 13:24:33;;;;;;;17.17;12.02;;;;;;;;;;5065899;28;20027;-61
2022/08/31 13:27:04;;;;;;;21.65;15.02;;;;;;;;;;5064830;28;20017;-61
2022/08/31 13:29:29;;;;;;;18.80;12.15;;;;;;;;;;5061712;28;20028;-61
2022/08/31 13:31:55;;;;;;;18.77;12.63;;;;;;;;;;5064735;28;20012;-60
2022/08/31 13:34:22;;;;;;;20.65;13.98;;;;;;;;;;5065422;28;20020;-61
2022/08/31 13:36:54;;;;;;;20.65;14.98;;;;;;;;;;5064419;28;20024;-61
2022/08/31 13:39:28;;;;;;;18.35;13.05;;;;;;;;;;5061694;28;20047;-61
2022/08/31 13:42:04;;;;;;;23.45;14.13;;;;;;;;;;5064157;28;20028;-61
2022/08/31 13:44:36;;;;;;;18.00;12.55;;;;;;;;;;5064503;28;20111;-61
2022/08/31 13:47:04;;;;;;;18.38;12.98;;;;;;;;;;5061496;28;20414;-61
2022/08/31 13:49:34;;;;;;;23.08;12.93;;;;;;;;;;5069315;28;20028;-61
2022/08/31 13:52:25;;;;;;;21.13;13.73;;;;;;;;;;5061873;28;20020;-61
2022/08/31 13:55:07;;;;;;;19.42;14.02;;;;;;;;;;5068275;28;20033;-61
2022/08/31 13:57:34;;;;;;;21.45;14.40;;;;;;;;;;5058300;28;20511;-61
2022/08/31 14:00:25;;;;;;;20.77;13.70;;;;;;;;;;5061759;28;20560;-61
2022/08/31 14:02:52;;;;;;;20.25;12.35;;;;;;;;;;5066344;28;20375;-61
2022/08/31 14:05:37;;;;;;;19.83;13.00;;;;;;;;;;5067330;28;20432;-61
2022/08/31 14:08:07;;;;;;;19.45;13.15;;;;;;;;;;5062646;28;20035;-61
2022/08/31 14:10:33;;;;;;;22.70;12.18;;;;;;;;;;5064358;28;20408;-61
2022/08/31 14:13:16;;;;;;;21.90;13.75;;;;;;;;;;5063562;28;20017;-61
2022/08/31 14:16:01;;;;;;;21.90;14.23;;;;;;;;;;5065742;28;20393;-61
2022/08/31 14:18:31;;;;;;;19.77;13.40;;;;;;;;;;5062145;28;20112;-61
2022/08/31 14:21:06;;;;;;;21.40;13.60;;;;;;;;;;5065029;28;20025;-61
2022/08/31 14:23:37;;;;;;;20.48;11.98;;;;;;;;;;5064372;28;20024;-60
2022/08/31 14:26:06;;;;;;;25.90;13.70;;;;;;;;;;5063168;28;20071;-60
2022/08/31 14:28:40;;;;;;;20.40;12.13;;;;;;;;;;5060889;28;20036;-61
2022/08/31 14:31:20;;;;;;;20.80;11.80;;;;;;;;;;5057301;28;20489;-60
2022/08/31 14:33:49;;;;;;;18.73;13.10;;;;;;;;;;5064492;28;20024;-60
2022/08/31 14:36:16;;;;;;;18.77;12.02;;;;;;;;;;5060647;28;20024;-60
2022/08/31 14:38:42;;;;;;;17.70;12.20;;;;;;;;;;5063825;28;20032;-60
2022/08/31 14:41:11;;;;;;;18.20;12.45;;;;;;;;;;5064553;28;20389;-60
2022/08/31 14:43:39;;;;;;;18.00;12.15;;;;;;;;;;5063069;28;20032;-60
2022/08/31 14:46:07;;;;;;;15.38;10.82;;;;;;;;;;5060218;28;20025;-61
2022/08/31 14:48:34;;;;;;;19.60;11.30;;;;;;;;;;5055560;28;20145;-60
2022/08/31 14:51:05;;;;;;;20.45;11.88;;;;;;;;;;5061333;28;20024;-61
2022/08/31 14:53:37;;;;;;;19.13;13.30;;;;;;;;;;5067479;28;20024;-60
2022/08/31 14:56:16;;;;;;;18.48;12.73;;;;;;;;;;5064314;28;20023;-60
2022/08/31 14:58:42;;;;;;;15.30;11.10;;;;;;;;;;5062924;28;20029;-60
2022/08/31 15:01:09;;;;;;;13.77;10.13;;;;;;;;;;5067533;28;20091;-61
2022/08/31 15:03:38;;;;;;;12.15;9.85;;;;;;;;;;5064002;28;20029;-61
2022/08/31 15:06:07;;;;;;;15.48;11.07;;;;;;;;;;5065349;28;20056;-60